KEBS/EBS METAR and TAF weather

Enter ICAO airport designator
Station Type Date Time Source
KEBS METAR 2018/01/22 20:15 UTC NOAA

KEBS 222015Z AUTO 03018G25KT 1 1/2SM -UP OVC005 01/01 A2941 RMK AO2


Station Type Date Time Source
KEBS Decoded METAR 2018/01/22 20:15 UTC NOAA

Webster City, IA, United States (KEBS) 42-26N 093-52W
Jan 22, 2018 - 03:15 PM EST / 2018.01.22 2015 UTC
Wind: from the NNE (030 degrees) at 21 MPH (18 KT) gusting to 29 MPH (25 KT):0
Visibility: 1 1/2 mile(s):0
Sky conditions: overcast
Weather: light precipitation
Temperature: 33 F (1 C)
Windchill: 21 F (-6 C):1
Dew Point: 33 F (1 C)
Relative Humidity: 100%
Pressure (altimeter): 29.41 in. Hg (995 hPa)
ob: KEBS 222015Z AUTO 03018G25KT 1 1/2SM -UP OVC005 01/01 A2941 RMK AO2
cycle: 20

Station Type Date Time Source
KEBS TAF UTC NOAA

Error!


Example: see airport list